Tegucigalpa, Honduras
Current Conditions -  °F | °C
As of 4:09 PM on Sunday 25 Jan 2015 (Local Time) from MHTG Reporting Station
Rain Showers Rain Showers  
Wind Chill: 66°   Ceiling: 2200
Heat Index: 66°   Visibility: 3mi
Dew Point: 61°   Wind: 12mph
Humidity: 83%   Direction: 360°N
Pressure: 30.03"   Gusts: NA
Location:  14.09°N, 87.22°W
Report Text: MHTG 252209Z 36010KT 5000 VCSH FEW008 BKN022 19/16 Q1017 A3006BECMG -RA
Loading
Personal Weather Stations






























Interactive Weather Map New forecast layout! Learn more

10-Day Weather Forecast

Advertisements
Track Severe Weather on mobile